createdAt,value
2023-06-16T00:01:17.489Z,15.54
2023-06-16T00:03:50.352Z,15.53
2023-06-16T00:06:20.232Z,15.52
2023-06-16T00:08:48.782Z,15.51
2023-06-16T00:11:17.412Z,15.50
2023-06-16T00:13:46.074Z,15.48
2023-06-16T00:16:13.684Z,15.49
2023-06-16T00:18:44.341Z,15.48
2023-06-16T00:21:13.903Z,15.46
2023-06-16T00:23:43.995Z,15.44
2023-06-16T00:26:10.648Z,15.44
2023-06-16T00:28:39.391Z,15.44
2023-06-16T00:31:06.198Z,15.44
2023-06-16T00:33:33.076Z,15.44
2023-06-16T00:36:00.279Z,15.43
2023-06-16T00:38:28.450Z,15.42
2023-06-16T00:40:55.426Z,15.39
2023-06-16T00:43:22.168Z,15.38
2023-06-16T00:45:51.176Z,15.37
2023-06-16T00:48:18.308Z,15.39
2023-06-16T00:50:45.903Z,15.41
2023-06-16T00:53:13.110Z,15.44
2023-06-16T00:55:41.008Z,15.46
2023-06-16T00:58:08.123Z,15.46
2023-06-16T01:00:36.647Z,15.46
2023-06-16T01:03:09.359Z,15.44
2023-06-16T01:05:37.350Z,15.44
2023-06-16T01:08:22.403Z,15.46
2023-06-16T01:11:01.895Z,15.48
2023-06-16T01:13:33.793Z,15.50
2023-06-16T01:16:03.078Z,15.50
2023-06-16T01:18:32.453Z,15.51
2023-06-16T01:21:11.478Z,15.52
2023-06-16T01:23:56.724Z,15.52
2023-06-16T01:26:26.863Z,15.52
2023-06-16T01:28:55.256Z,15.51
2023-06-16T01:31:24.590Z,15.51
2023-06-16T01:33:52.508Z,15.50
2023-06-16T01:36:20.095Z,15.46
2023-06-16T01:38:47.538Z,15.44
2023-06-16T01:41:16.172Z,15.42
2023-06-16T01:43:44.023Z,15.38
2023-06-16T01:46:12.924Z,15.34
2023-06-16T01:48:39.724Z,15.32
2023-06-16T01:51:07.223Z,15.29
2023-06-16T01:53:34.058Z,15.29
2023-06-16T01:56:01.135Z,15.28
2023-06-16T01:58:30.899Z,15.28
2023-06-16T02:01:28.007Z,15.27
2023-06-16T02:04:21.291Z,15.26
2023-06-16T02:06:53.049Z,15.25
2023-06-16T02:09:23.540Z,15.26
2023-06-16T02:11:52.733Z,15.23
2023-06-16T02:14:21.154Z,15.22
2023-06-16T02:16:51.104Z,15.20
2023-06-16T02:19:18.005Z,15.15
2023-06-16T02:21:44.999Z,15.13
2023-06-16T02:24:11.885Z,15.13
2023-06-16T02:26:38.834Z,15.12
2023-06-16T02:29:05.812Z,15.13
2023-06-16T02:31:32.818Z,15.13
2023-06-16T02:34:00.188Z,15.11
2023-06-16T02:36:27.349Z,15.09
2023-06-16T02:38:54.456Z,15.08
2023-06-16T02:41:21.345Z,15.09
2023-06-16T02:43:48.012Z,15.09
2023-06-16T02:46:15.262Z,15.09
2023-06-16T02:48:41.970Z,15.09
2023-06-16T02:51:09.082Z,15.07
2023-06-16T02:53:36.000Z,15.07
2023-06-16T02:56:03.589Z,15.08
2023-06-16T02:58:31.085Z,15.10
2023-06-16T03:00:58.318Z,15.09
2023-06-16T03:03:37.082Z,15.07
2023-06-16T03:06:20.448Z,15.05
2023-06-16T03:08:47.285Z,15.05
2023-06-16T03:11:14.801Z,15.05
2023-06-16T03:13:47.196Z,15.05
2023-06-16T03:16:14.764Z,15.05
2023-06-16T03:18:41.623Z,15.05
2023-06-16T03:21:08.891Z,15.05
2023-06-16T03:23:41.726Z,15.05
2023-06-16T03:26:08.939Z,15.06
2023-06-16T03:28:53.995Z,15.08
2023-06-16T03:31:21.022Z,15.10
2023-06-16T03:33:47.719Z,15.12
2023-06-16T03:36:15.223Z,15.14
2023-06-16T03:38:42.517Z,15.17
2023-06-16T03:41:09.531Z,15.21
2023-06-16T03:43:36.267Z,15.22
2023-06-16T03:46:03.381Z,15.23
2023-06-16T03:48:32.999Z,15.24
2023-06-16T03:51:02.411Z,15.26
2023-06-16T03:53:29.906Z,15.29
2023-06-16T03:55:56.720Z,15.31
2023-06-16T03:58:24.730Z,15.35
2023-06-16T04:00:51.455Z,15.37
2023-06-16T04:03:18.567Z,15.40
2023-06-16T04:05:45.480Z,15.43
2023-06-16T04:08:12.404Z,15.43
2023-06-16T04:10:39.422Z,15.45
2023-06-16T04:13:06.597Z,15.49
2023-06-16T04:15:35.888Z,15.52
2023-06-16T04:18:03.906Z,15.53
2023-06-16T04:20:31.731Z,15.54
2023-06-16T04:22:58.587Z,15.58
2023-06-16T04:25:25.765Z,15.61
2023-06-16T04:27:53.781Z,15.65
2023-06-16T04:30:22.885Z,15.68
2023-06-16T04:32:50.006Z,15.69
2023-06-16T04:35:18.144Z,15.71
2023-06-16T04:37:45.462Z,15.74
2023-06-16T04:40:13.426Z,15.76
2023-06-16T04:42:40.409Z,15.77
2023-06-16T04:45:08.228Z,15.79
2023-06-16T04:47:41.009Z,15.85
2023-06-16T04:50:09.413Z,15.91
2023-06-16T04:52:37.175Z,15.93
2023-06-16T04:55:07.562Z,15.94
2023-06-16T04:57:36.489Z,15.94
2023-06-16T05:00:06.729Z,15.97
2023-06-16T05:02:34.117Z,15.98
2023-06-16T05:05:03.700Z,16.00
2023-06-16T05:07:32.018Z,16.03
2023-06-16T05:09:59.223Z,16.07
2023-06-16T05:12:26.776Z,16.10
2023-06-16T05:14:53.413Z,16.09
2023-06-16T05:17:20.727Z,16.11
2023-06-16T05:19:47.602Z,16.13
2023-06-16T05:22:14.925Z,16.15
2023-06-16T05:24:42.757Z,16.19
2023-06-16T05:27:09.497Z,16.25
2023-06-16T05:29:36.669Z,16.30
2023-06-16T05:32:04.138Z,16.37
2023-06-16T05:34:30.789Z,16.43
2023-06-16T05:36:58.612Z,16.50
2023-06-16T05:39:26.463Z,16.56
2023-06-16T05:41:53.185Z,16.62
2023-06-16T05:44:19.938Z,16.66
2023-06-16T05:46:47.491Z,16.71
2023-06-16T05:49:16.700Z,16.74
2023-06-16T05:51:43.344Z,16.78
2023-06-16T05:54:10.212Z,16.79
2023-06-16T05:56:37.353Z,16.80
2023-06-16T05:59:05.102Z,16.83
2023-06-16T06:01:33.725Z,16.90
2023-06-16T06:04:00.664Z,16.95
2023-06-16T06:06:28.627Z,17.00
2023-06-16T06:08:55.811Z,17.04
2023-06-16T06:11:22.712Z,17.08
2023-06-16T06:13:49.672Z,17.14
2023-06-16T06:16:16.345Z,17.21
2023-06-16T06:18:43.953Z,17.25
2023-06-16T06:38:04.251Z,18.09
2023-06-16T06:40:32.510Z,18.14
2023-06-16T06:42:59.548Z,18.15
2023-06-16T06:45:42.087Z,18.14
2023-06-16T06:48:08.691Z,18.18
2023-06-16T06:50:35.439Z,18.22
2023-06-16T06:53:03.031Z,18.28
2023-06-16T06:55:29.557Z,18.37
2023-06-16T06:57:56.328Z,18.42
2023-06-16T07:00:22.892Z,18.43
2023-06-16T07:02:49.609Z,18.45
2023-06-16T07:05:16.452Z,18.51
2023-06-16T07:07:43.015Z,18.62
2023-06-16T07:10:11.139Z,18.71
2023-06-16T07:12:37.903Z,18.79
2023-06-16T07:15:05.040Z,18.89
2023-06-16T07:17:32.204Z,19.00
2023-06-16T07:19:58.914Z,19.08
2023-06-16T07:22:25.471Z,19.12
2023-06-16T07:24:51.969Z,19.16
2023-06-16T07:27:18.634Z,19.20
2023-06-16T07:29:45.230Z,19.24
2023-06-16T07:32:11.980Z,19.27
2023-06-16T07:34:39.677Z,19.31
2023-06-16T07:37:06.353Z,19.37
2023-06-16T07:39:33.006Z,19.43
2023-06-16T07:41:59.767Z,19.44
2023-06-16T07:44:26.360Z,19.44
2023-06-16T07:46:53.333Z,19.43
2023-06-16T07:49:20.514Z,19.41
2023-06-16T07:51:47.024Z,19.38
2023-06-16T07:54:13.666Z,19.32
2023-06-16T07:56:41.360Z,19.26
2023-06-16T07:59:07.937Z,19.23
2023-06-16T08:01:34.596Z,19.23
2023-06-16T08:04:01.797Z,19.26
2023-06-16T08:06:29.171Z,19.34
2023-06-16T08:08:56.846Z,19.45
2023-06-16T08:11:23.630Z,19.57
2023-06-16T08:13:50.300Z,19.70
2023-06-16T08:16:17.414Z,19.82
2023-06-16T08:18:44.500Z,19.88
2023-06-16T08:21:11.128Z,19.90
2023-06-16T08:23:37.803Z,19.92
2023-06-16T08:26:06.133Z,19.95
2023-06-16T08:28:32.756Z,19.99
2023-06-16T08:30:59.848Z,20.00
2023-06-16T08:33:26.492Z,20.05
2023-06-16T08:35:53.366Z,20.08
2023-06-16T08:38:20.120Z,20.09
2023-06-16T08:40:47.074Z,20.10
2023-06-16T08:43:15.503Z,20.11
2023-06-16T08:45:44.353Z,20.12
2023-06-16T08:48:14.038Z,20.13
2023-06-16T08:50:41.932Z,20.13
2023-06-16T08:53:11.599Z,20.11
2023-06-16T08:55:41.229Z,20.09
2023-06-16T08:58:12.165Z,20.07
2023-06-16T09:00:42.116Z,20.07
2023-06-16T09:03:08.917Z,20.09
2023-06-16T09:05:36.914Z,20.11
2023-06-16T09:08:06.904Z,20.14
2023-06-16T09:10:34.811Z,20.17
2023-06-16T09:13:01.702Z,20.21
2023-06-16T09:15:28.808Z,20.26
2023-06-16T09:17:57.458Z,20.33
2023-06-16T09:20:24.976Z,20.38
2023-06-16T09:23:01.297Z,20.43
2023-06-16T09:25:33.209Z,20.51
2023-06-16T09:28:08.606Z,20.60
2023-06-16T09:30:36.423Z,20.68
2023-06-16T09:33:03.638Z,20.75
2023-06-16T09:35:31.905Z,20.84
2023-06-16T09:38:01.348Z,20.94
2023-06-16T09:40:32.497Z,21.04
2023-06-16T09:43:04.540Z,21.18
2023-06-16T09:45:32.865Z,21.30
2023-06-16T09:48:09.288Z,21.40
2023-06-16T09:50:37.390Z,21.49
2023-06-16T09:53:06.645Z,21.57
2023-06-16T09:55:41.931Z,21.64
2023-06-16T09:58:09.057Z,21.75
2023-06-16T10:00:36.135Z,21.85
2023-06-16T10:03:08.256Z,21.94
2023-06-16T10:05:37.564Z,22.09
2023-06-16T10:08:06.333Z,22.26
2023-06-16T10:10:34.240Z,22.47
2023-06-16T10:13:05.611Z,22.69
2023-06-16T10:15:38.051Z,22.93
2023-06-16T10:18:13.011Z,23.18
2023-06-16T10:20:40.927Z,23.40
2023-06-16T10:23:09.197Z,23.60
2023-06-16T10:25:36.839Z,23.77
2023-06-16T10:28:08.463Z,23.92
2023-06-16T10:30:36.409Z,24.05
2023-06-16T10:33:16.770Z,24.24
2023-06-16T11:12:37.563Z,25.92
2023-06-16T11:15:04.866Z,25.99
2023-06-16T11:17:33.341Z,26.04
2023-06-16T11:20:02.195Z,26.02
2023-06-16T11:22:36.681Z,25.91
2023-06-16T11:25:05.694Z,25.80
2023-06-16T11:27:33.216Z,25.70
2023-06-16T11:30:03.728Z,25.59
2023-06-16T11:32:35.157Z,25.50
2023-06-16T11:35:02.929Z,25.39
2023-06-16T11:37:52.642Z,25.36
2023-06-16T11:40:27.315Z,25.24
2023-06-16T11:42:59.252Z,25.10
2023-06-16T11:45:32.338Z,24.96
2023-06-16T11:48:02.083Z,24.87
2023-06-16T11:50:29.796Z,24.69
2023-06-16T11:52:57.503Z,24.52
2023-06-16T11:55:28.105Z,24.38
2023-06-16T11:57:59.899Z,24.24
2023-06-16T12:00:27.697Z,24.08
2023-06-16T12:02:55.603Z,23.91
2023-06-16T12:05:26.452Z,23.71
2023-06-16T12:07:53.797Z,23.57
2023-06-16T12:10:23.311Z,23.44
2023-06-16T12:12:51.046Z,23.30
2023-06-16T12:15:20.796Z,23.14
2023-06-16T12:17:48.398Z,23.03
2023-06-16T12:20:17.536Z,22.98
2023-06-16T12:22:55.861Z,22.86
2023-06-16T12:25:23.154Z,22.72
2023-06-16T12:27:51.910Z,22.65
2023-06-16T12:30:19.413Z,22.53
2023-06-16T12:32:46.777Z,22.42
2023-06-16T12:35:24.826Z,22.34
2023-06-16T12:37:51.603Z,22.31
2023-06-16T12:40:29.077Z,22.29
2023-06-16T12:42:55.756Z,22.29
2023-06-16T12:45:22.532Z,22.31
2023-06-16T12:47:49.141Z,22.22
2023-06-16T12:50:15.769Z,22.15
2023-06-16T12:52:42.397Z,22.05
2023-06-16T12:55:09.161Z,21.99
2023-06-16T12:57:35.826Z,21.94
2023-06-16T13:00:03.172Z,21.94
2023-06-16T13:02:30.092Z,21.91
2023-06-16T13:04:56.873Z,21.93
2023-06-16T13:07:24.431Z,21.91
2023-06-16T13:09:51.055Z,21.90
2023-06-16T13:12:17.816Z,21.92
2023-06-16T13:14:45.357Z,21.98
2023-06-16T13:17:12.005Z,22.01
2023-06-16T13:19:40.180Z,22.05
2023-06-16T13:22:07.722Z,22.16
2023-06-16T13:24:34.616Z,22.29
2023-06-16T13:27:01.404Z,22.38
2023-06-16T13:29:28.186Z,22.44
2023-06-16T13:31:54.994Z,22.60
2023-06-16T13:34:21.653Z,22.67
2023-06-16T13:36:48.484Z,22.66
2023-06-16T13:39:15.260Z,22.72
2023-06-16T13:41:42.193Z,22.78
2023-06-16T13:44:10.061Z,22.83
2023-06-16T13:46:36.984Z,22.88
2023-06-16T13:49:03.821Z,22.90
2023-06-16T13:51:30.654Z,22.89
2023-06-16T13:53:57.426Z,22.83
2023-06-16T13:56:24.240Z,22.67
2023-06-16T13:58:50.963Z,22.55
2023-06-16T14:01:17.752Z,22.46
2023-06-16T14:03:44.470Z,22.37
2023-06-16T14:06:13.505Z,22.30
2023-06-16T14:08:40.372Z,22.34
2023-06-16T14:11:07.081Z,22.39
2023-06-16T14:13:33.678Z,22.38
2023-06-16T14:16:00.462Z,22.41
2023-06-16T14:18:27.212Z,22.45
2023-06-16T14:20:53.960Z,22.43
2023-06-16T14:23:20.616Z,22.33
2023-06-16T14:25:48.719Z,22.31
2023-06-16T14:28:15.615Z,22.28
2023-06-16T14:30:42.560Z,22.21
2023-06-16T14:33:11.637Z,22.27
2023-06-16T14:35:39.282Z,22.42
2023-06-16T14:38:06.535Z,22.53
2023-06-16T14:40:33.710Z,22.63
2023-06-16T14:43:00.681Z,22.84
2023-06-16T14:45:27.460Z,22.99
2023-06-16T14:47:54.057Z,23.07
2023-06-16T14:50:22.991Z,23.08
2023-06-16T14:52:49.827Z,23.10
2023-06-16T14:55:16.478Z,23.16
2023-06-16T14:57:43.130Z,23.11
2023-06-16T15:00:10.159Z,23.06
2023-06-16T15:02:37.026Z,23.04
2023-06-16T15:05:04.248Z,23.01
2023-06-16T15:07:30.974Z,22.85
2023-06-16T15:09:57.570Z,22.70
2023-06-16T15:12:24.113Z,22.62
2023-06-16T15:14:50.645Z,22.51
2023-06-16T15:17:17.362Z,22.38
2023-06-16T15:19:43.921Z,22.27
2023-06-16T15:22:10.664Z,22.21
2023-06-16T15:24:37.485Z,22.10
2023-06-16T15:27:04.870Z,22.02
2023-06-16T15:29:31.606Z,21.94
2023-06-16T15:31:58.478Z,21.88
2023-06-16T15:34:25.356Z,21.82
2023-06-16T15:36:52.091Z,21.78
2023-06-16T15:39:19.246Z,21.75
2023-06-16T15:41:46.070Z,21.71
2023-06-16T15:44:12.755Z,21.66
2023-06-16T15:46:39.512Z,21.60
2023-06-16T15:49:06.086Z,21.54
2023-06-16T15:51:32.814Z,21.48
2023-06-16T15:53:59.487Z,21.42
2023-06-16T15:56:26.220Z,21.33
2023-06-16T15:58:52.735Z,21.24
2023-06-16T16:01:19.711Z,21.17
2023-06-16T16:03:46.520Z,21.08
2023-06-16T16:06:13.113Z,21.01
2023-06-16T16:08:39.834Z,20.92
2023-06-16T16:11:07.057Z,20.85
2023-06-16T16:13:33.664Z,20.75
2023-06-16T16:16:00.525Z,20.68
2023-06-16T16:18:27.366Z,20.60
2023-06-16T16:20:54.356Z,20.52
2023-06-16T16:23:20.996Z,20.39
2023-06-16T16:25:47.709Z,20.31
2023-06-16T16:28:14.190Z,20.25
2023-06-16T16:30:41.080Z,20.19
2023-06-16T16:33:07.783Z,20.13
2023-06-16T16:35:34.682Z,20.06
2023-06-16T16:38:01.392Z,20.01
2023-06-16T16:40:28.019Z,19.97
2023-06-16T16:42:56.349Z,19.95
2023-06-16T16:45:23.061Z,19.95
2023-06-16T16:47:50.467Z,19.94
2023-06-16T16:50:17.448Z,19.93
2023-06-16T16:52:44.214Z,19.91
2023-06-16T16:55:22.373Z,19.88
2023-06-16T16:57:57.379Z,19.87
2023-06-16T17:00:24.436Z,19.84
2023-06-16T17:02:51.281Z,19.82
2023-06-16T17:05:18.229Z,19.79
2023-06-16T17:07:45.337Z,19.76
2023-06-16T17:10:12.014Z,19.73
2023-06-16T17:12:38.780Z,19.70
2023-06-16T17:15:06.295Z,19.67
2023-06-16T17:17:33.029Z,19.63
2023-06-16T17:20:00.146Z,19.60
2023-06-16T17:22:27.003Z,19.57
2023-06-16T17:24:53.752Z,19.53
2023-06-16T17:27:20.369Z,19.49
2023-06-16T17:29:46.948Z,19.45
2023-06-16T17:32:13.858Z,19.42
2023-06-16T17:34:40.554Z,19.38
2023-06-16T17:37:07.229Z,19.34
2023-06-16T17:39:33.920Z,19.30
2023-06-16T17:42:00.515Z,19.27
2023-06-16T17:44:27.455Z,19.23
2023-06-16T17:46:54.408Z,19.20
2023-06-16T17:49:23.490Z,19.17
2023-06-16T17:51:51.065Z,19.14
2023-06-16T17:54:18.078Z,19.11
2023-06-16T17:56:45.737Z,19.08
2023-06-16T17:59:12.537Z,19.04
2023-06-16T18:01:40.045Z,19.01
2023-06-16T18:04:06.725Z,18.99
2023-06-16T18:06:33.364Z,18.97
2023-06-16T18:09:00.196Z,18.93
2023-06-16T18:11:27.950Z,18.90
2023-06-16T18:13:54.817Z,18.88
2023-06-16T18:16:22.314Z,18.86
2023-06-16T18:18:49.178Z,18.83
2023-06-16T18:21:16.007Z,18.81
2023-06-16T18:23:42.670Z,18.78
2023-06-16T18:26:09.356Z,18.74
2023-06-16T18:28:36.102Z,18.72
2023-06-16T18:31:03.230Z,18.70
2023-06-16T18:33:30.812Z,18.67
2023-06-16T18:35:57.483Z,18.65
2023-06-16T18:38:24.348Z,18.62
2023-06-16T18:40:51.109Z,18.59
2023-06-16T18:43:24.128Z,18.56
2023-06-16T18:45:52.607Z,18.54
2023-06-16T18:48:19.268Z,18.51
2023-06-16T18:50:46.010Z,18.49
2023-06-16T18:53:13.916Z,18.47
2023-06-16T18:55:43.266Z,18.44
2023-06-16T18:58:10.903Z,18.43
2023-06-16T19:00:37.853Z,18.40
2023-06-16T19:03:04.580Z,18.38
2023-06-16T19:05:32.559Z,18.35
2023-06-16T19:08:00.154Z,18.32
2023-06-16T19:10:26.935Z,18.29
2023-06-16T19:12:53.942Z,18.25
2023-06-16T19:15:22.650Z,18.23
2023-06-16T19:17:50.443Z,18.20
2023-06-16T19:20:17.441Z,18.18
2023-06-16T19:22:44.480Z,18.17
2023-06-16T19:25:12.107Z,18.15
2023-06-16T19:27:39.323Z,18.14
2023-06-16T19:30:07.085Z,18.13
2023-06-16T19:32:35.536Z,18.12
2023-06-16T19:35:02.738Z,18.11
2023-06-16T19:37:33.366Z,18.11
2023-06-16T19:40:00.308Z,18.11
2023-06-16T19:42:27.267Z,18.11
2023-06-16T19:44:55.383Z,18.11
2023-06-16T19:47:23.705Z,18.12
2023-06-16T19:49:51.300Z,18.11
2023-06-16T19:52:18.114Z,18.11
2023-06-16T19:54:44.888Z,18.11
2023-06-16T19:57:12.594Z,18.11
2023-06-16T19:59:39.780Z,18.11
2023-06-16T20:02:06.865Z,18.09
2023-06-16T20:04:38.118Z,18.07
2023-06-16T20:07:06.481Z,18.04
2023-06-16T20:09:33.276Z,18.02
2023-06-16T20:11:59.900Z,17.98
2023-06-16T20:14:27.209Z,17.93
2023-06-16T20:16:56.420Z,17.92
2023-06-16T20:19:24.551Z,17.90
2023-06-16T20:21:51.375Z,17.87
2023-06-16T20:24:18.302Z,17.86
2023-06-16T20:26:45.048Z,17.82
2023-06-16T20:29:11.765Z,17.78
2023-06-16T20:31:39.008Z,17.78
2023-06-16T20:34:08.636Z,17.76
2023-06-16T20:36:38.571Z,17.76
2023-06-16T20:39:09.994Z,17.75
2023-06-16T20:41:38.876Z,17.74
2023-06-16T20:44:07.222Z,17.73
2023-06-16T20:46:33.783Z,17.73
2023-06-16T20:49:00.990Z,17.72
2023-06-16T20:51:29.016Z,17.73
2023-06-16T20:53:58.738Z,17.73
2023-06-16T20:56:26.207Z,17.73
2023-06-16T20:58:52.961Z,17.72
2023-06-16T21:01:19.623Z,17.71
2023-06-16T21:03:52.378Z,17.70
2023-06-16T21:06:19.288Z,17.70
2023-06-16T21:08:50.037Z,17.69
2023-06-16T21:11:16.843Z,17.69
2023-06-16T21:13:43.674Z,17.70
2023-06-16T21:16:12.129Z,17.69
2023-06-16T21:18:39.022Z,17.68
2023-06-16T21:21:05.665Z,17.64
2023-06-16T21:23:32.275Z,17.63
2023-06-16T21:25:58.919Z,17.61
2023-06-16T21:28:26.227Z,17.61
2023-06-16T21:30:52.756Z,17.61
2023-06-16T21:33:20.045Z,17.60
2023-06-16T21:35:46.654Z,17.55
2023-06-16T21:38:19.424Z,17.53
2023-06-16T21:40:46.848Z,17.52
2023-06-16T21:43:13.567Z,17.50
2023-06-16T21:45:40.263Z,17.49
2023-06-16T21:48:06.873Z,17.49
2023-06-16T21:50:33.870Z,17.48
2023-06-16T21:53:00.696Z,17.47
2023-06-16T21:55:27.480Z,17.45
2023-06-16T21:57:54.179Z,17.44
2023-06-16T22:00:21.176Z,17.44
2023-06-16T22:02:48.534Z,17.43
2023-06-16T22:05:15.379Z,17.42
2023-06-16T22:07:42.435Z,17.43
2023-06-16T22:10:11.071Z,17.41
2023-06-16T22:12:38.067Z,17.37
2023-06-16T22:15:06.825Z,17.36
2023-06-16T22:17:37.386Z,17.37
2023-06-16T22:20:11.368Z,17.36
2023-06-16T22:22:39.808Z,17.36
2023-06-16T22:25:06.592Z,17.35
2023-06-16T22:27:33.350Z,17.35
2023-06-16T22:30:00.051Z,17.35
2023-06-16T22:32:28.200Z,17.34
2023-06-16T22:34:55.672Z,17.34
2023-06-16T22:37:22.426Z,17.33
2023-06-16T22:39:49.467Z,17.32
2023-06-16T22:42:18.403Z,17.30
2023-06-16T22:44:45.438Z,17.29
2023-06-16T22:47:13.365Z,17.27
2023-06-16T22:49:40.235Z,17.23
2023-06-16T22:52:07.191Z,17.20
2023-06-16T22:54:33.772Z,17.17
2023-06-16T22:57:00.628Z,17.15
2023-06-16T22:59:27.212Z,17.12
2023-06-16T23:01:56.606Z,17.12
2023-06-16T23:04:23.536Z,17.11
2023-06-16T23:06:51.202Z,17.10
2023-06-16T23:09:17.985Z,17.09
2023-06-16T23:11:44.688Z,17.07
2023-06-16T23:14:11.345Z,17.06
2023-06-16T23:16:38.956Z,17.04
2023-06-16T23:19:05.522Z,17.03
2023-06-16T23:21:32.235Z,17.02
2023-06-16T23:23:58.892Z,17.01
2023-06-16T23:26:28.730Z,17.01
2023-06-16T23:28:55.399Z,17.01
2023-06-16T23:31:22.253Z,17.01
2023-06-16T23:33:49.203Z,17.00
2023-06-16T23:36:17.272Z,17.01
2023-06-16T23:38:45.245Z,16.99
2023-06-16T23:41:12.233Z,16.99
2023-06-16T23:43:39.078Z,16.97
2023-06-16T23:46:05.803Z,16.97
2023-06-16T23:48:32.578Z,16.95
2023-06-16T23:50:59.314Z,16.94
2023-06-16T23:53:26.311Z,16.92
2023-06-16T23:55:53.036Z,16.91
2023-06-16T23:58:19.788Z,16.90
